sensor_id;sensor_type;location;lat;lon;timestamp;P1;durP1;ratioP1;P2;durP2;ratioP2
21987;SDS011;11158;53.404;-1.510;2023-08-08T00:00:40;1.80;;;1.05;;
21987;SDS011;11158;53.404;-1.510;2023-08-08T00:03:24;1.00;;;0.68;;
21987;SDS011;11158;53.404;-1.510;2023-08-08T00:06:07;2.35;;;0.85;;
21987;SDS011;11158;53.404;-1.510;2023-08-08T00:08:52;1.98;;;1.10;;
21987;SDS011;11158;53.404;-1.510;2023-08-08T00:11:36;3.55;;;1.17;;
21987;SDS011;11158;53.404;-1.510;2023-08-08T00:14:21;2.40;;;0.90;;
21987;SDS011;11158;53.404;-1.510;2023-08-08T00:17:06;3.30;;;0.90;;
21987;SDS011;11158;53.404;-1.510;2023-08-08T00:19:50;1.98;;;0.80;;
21987;SDS011;11158;53.404;-1.510;2023-08-08T00:22:34;4.82;;;1.02;;
21987;SDS011;11158;53.404;-1.510;2023-08-08T00:25:19;4.40;;;0.90;;
21987;SDS011;11158;53.404;-1.510;2023-08-08T00:28:03;3.42;;;1.30;;
21987;SDS011;11158;53.404;-1.510;2023-08-08T00:30:48;2.75;;;0.88;;
21987;SDS011;11158;53.404;-1.510;2023-08-08T00:33:32;1.55;;;0.90;;
21987;SDS011;11158;53.404;-1.510;2023-08-08T00:36:16;3.83;;;1.23;;
21987;SDS011;11158;53.404;-1.510;2023-08-08T00:39:00;1.13;;;0.90;;
21987;SDS011;11158;53.404;-1.510;2023-08-08T00:41:44;2.63;;;0.70;;
21987;SDS011;11158;53.404;-1.510;2023-08-08T00:44:28;4.22;;;0.80;;
21987;SDS011;11158;53.404;-1.510;2023-08-08T00:47:12;1.40;;;0.85;;
21987;SDS011;11158;53.404;-1.510;2023-08-08T00:49:56;1.25;;;0.80;;
21987;SDS011;11158;53.404;-1.510;2023-08-08T00:52:41;2.65;;;0.90;;
21987;SDS011;11158;53.404;-1.510;2023-08-08T00:55:27;1.83;;;1.10;;
21987;SDS011;11158;53.404;-1.510;2023-08-08T00:58:12;2.75;;;0.93;;
21987;SDS011;11158;53.404;-1.510;2023-08-08T01:00:56;4.95;;;1.10;;
21987;SDS011;11158;53.404;-1.510;2023-08-08T01:03:44;3.60;;;1.00;;
21987;SDS011;11158;53.404;-1.510;2023-08-08T01:06:35;3.03;;;0.80;;
21987;SDS011;11158;53.404;-1.510;2023-08-08T01:12:07;2.13;;;1.10;;
21987;SDS011;11158;53.404;-1.510;2023-08-08T01:14:55;2.92;;;0.82;;
21987;SDS011;11158;53.404;-1.510;2023-08-08T01:17:41;3.00;;;1.33;;
21987;SDS011;11158;53.404;-1.510;2023-08-08T01:20:26;4.10;;;1.10;;
21987;SDS011;11158;53.404;-1.510;2023-08-08T01:23:13;1.90;;;0.90;;
21987;SDS011;11158;53.404;-1.510;2023-08-08T01:26:20;4.53;;;1.23;;
21987;SDS011;11158;53.404;-1.510;2023-08-08T01:29:05;0.85;;;0.73;;
21987;SDS011;11158;53.404;-1.510;2023-08-08T01:31:50;0.80;;;0.80;;
21987;SDS011;11158;53.404;-1.510;2023-08-08T01:34:34;4.60;;;0.88;;
21987;SDS011;11158;53.404;-1.510;2023-08-08T01:40:30;1.85;;;0.70;;
21987;SDS011;11158;53.404;-1.510;2023-08-08T01:43:15;1.38;;;0.73;;
21987;SDS011;11158;53.404;-1.510;2023-08-08T01:46:02;2.55;;;0.60;;
21987;SDS011;11158;53.404;-1.510;2023-08-08T01:48:47;1.20;;;0.80;;
21987;SDS011;11158;53.404;-1.510;2023-08-08T01:51:31;1.65;;;0.80;;
21987;SDS011;11158;53.404;-1.510;2023-08-08T01:54:15;0.65;;;0.65;;
21987;SDS011;11158;53.404;-1.510;2023-08-08T01:57:00;1.85;;;0.70;;
21987;SDS011;11158;53.404;-1.510;2023-08-08T01:59:47;0.47;;;0.47;;
21987;SDS011;11158;53.404;-1.510;2023-08-08T02:02:32;1.38;;;0.80;;
21987;SDS011;11158;53.404;-1.510;2023-08-08T02:05:16;1.15;;;0.82;;
21987;SDS011;11158;53.404;-1.510;2023-08-08T02:08:00;1.45;;;0.60;;
21987;SDS011;11158;53.404;-1.510;2023-08-08T02:10:45;1.70;;;0.60;;
21987;SDS011;11158;53.404;-1.510;2023-08-08T02:13:29;2.53;;;0.80;;
21987;SDS011;11158;53.404;-1.510;2023-08-08T02:16:14;1.52;;;0.70;;
21987;SDS011;11158;53.404;-1.510;2023-08-08T02:18:58;1.38;;;0.60;;
21987;SDS011;11158;53.404;-1.510;2023-08-08T02:21:41;0.77;;;0.50;;
21987;SDS011;11158;53.404;-1.510;2023-08-08T02:24:26;0.70;;;0.55;;
21987;SDS011;11158;53.404;-1.510;2023-08-08T02:27:11;1.05;;;0.60;;
21987;SDS011;11158;53.404;-1.510;2023-08-08T02:29:56;2.10;;;0.68;;
21987;SDS011;11158;53.404;-1.510;2023-08-08T02:32:41;1.42;;;0.55;;
21987;SDS011;11158;53.404;-1.510;2023-08-08T02:35:25;1.85;;;0.63;;
21987;SDS011;11158;53.404;-1.510;2023-08-08T02:38:10;1.83;;;0.52;;
21987;SDS011;11158;53.404;-1.510;2023-08-08T02:40:54;1.10;;;0.70;;
21987;SDS011;11158;53.404;-1.510;2023-08-08T02:43:38;1.88;;;0.70;;
21987;SDS011;11158;53.404;-1.510;2023-08-08T02:46:22;1.02;;;0.70;;
21987;SDS011;11158;53.404;-1.510;2023-08-08T02:49:06;1.48;;;0.68;;
21987;SDS011;11158;53.404;-1.510;2023-08-08T02:51:51;1.10;;;0.60;;
21987;SDS011;11158;53.404;-1.510;2023-08-08T02:54:34;1.52;;;0.77;;
21987;SDS011;11158;53.404;-1.510;2023-08-08T02:57:19;1.50;;;0.75;;
21987;SDS011;11158;53.404;-1.510;2023-08-08T03:00:03;1.25;;;1.02;;
21987;SDS011;11158;53.404;-1.510;2023-08-08T03:02:48;2.40;;;0.85;;
21987;SDS011;11158;53.404;-1.510;2023-08-08T03:05:32;2.00;;;0.80;;
21987;SDS011;11158;53.404;-1.510;2023-08-08T03:08:16;1.50;;;0.90;;
21987;SDS011;11158;53.404;-1.510;2023-08-08T03:11:00;2.20;;;1.13;;
21987;SDS011;11158;53.404;-1.510;2023-08-08T03:13:44;1.27;;;0.77;;
21987;SDS011;11158;53.404;-1.510;2023-08-08T03:16:28;1.77;;;1.08;;
21987;SDS011;11158;53.404;-1.510;2023-08-08T03:19:13;3.65;;;1.63;;
21987;SDS011;11158;53.404;-1.510;2023-08-08T03:21:57;2.28;;;0.90;;
21987;SDS011;11158;53.404;-1.510;2023-08-08T03:24:41;3.42;;;1.33;;
21987;SDS011;11158;53.404;-1.510;2023-08-08T03:27:25;1.40;;;0.90;;
21987;SDS011;11158;53.404;-1.510;2023-08-08T03:30:10;2.22;;;0.90;;
21987;SDS011;11158;53.404;-1.510;2023-08-08T03:32:54;1.83;;;1.05;;
21987;SDS011;11158;53.404;-1.510;2023-08-08T03:35:38;1.58;;;0.95;;
21987;SDS011;11158;53.404;-1.510;2023-08-08T03:38:22;1.52;;;0.80;;
21987;SDS011;11158;53.404;-1.510;2023-08-08T03:41:06;1.52;;;1.05;;
21987;SDS011;11158;53.404;-1.510;2023-08-08T03:43:52;2.45;;;0.90;;
21987;SDS011;11158;53.404;-1.510;2023-08-08T03:46:36;3.45;;;1.20;;
21987;SDS011;11158;53.404;-1.510;2023-08-08T03:49:20;3.70;;;1.30;;
21987;SDS011;11158;53.404;-1.510;2023-08-08T03:52:07;3.13;;;1.38;;
21987;SDS011;11158;53.404;-1.510;2023-08-08T03:54:51;2.90;;;1.15;;
21987;SDS011;11158;53.404;-1.510;2023-08-08T03:57:35;3.35;;;1.30;;
21987;SDS011;11158;53.404;-1.510;2023-08-08T04:00:19;1.60;;;0.85;;
21987;SDS011;11158;53.404;-1.510;2023-08-08T04:03:04;1.30;;;1.02;;
21987;SDS011;11158;53.404;-1.510;2023-08-08T04:05:48;2.92;;;1.00;;
21987;SDS011;11158;53.404;-1.510;2023-08-08T04:08:32;2.80;;;1.23;;
21987;SDS011;11158;53.404;-1.510;2023-08-08T04:11:16;3.15;;;1.10;;
21987;SDS011;11158;53.404;-1.510;2023-08-08T04:14:01;2.08;;;1.02;;
21987;SDS011;11158;53.404;-1.510;2023-08-08T04:16:45;2.17;;;1.20;;
21987;SDS011;11158;53.404;-1.510;2023-08-08T04:19:29;2.38;;;1.25;;
21987;SDS011;11158;53.404;-1.510;2023-08-08T04:22:14;2.20;;;1.35;;
21987;SDS011;11158;53.404;-1.510;2023-08-08T04:24:59;2.03;;;1.30;;
21987;SDS011;11158;53.404;-1.510;2023-08-08T04:27:43;2.80;;;1.20;;
21987;SDS011;11158;53.404;-1.510;2023-08-08T04:30:27;2.35;;;1.80;;
21987;SDS011;11158;53.404;-1.510;2023-08-08T04:33:11;8.02;;;1.40;;
21987;SDS011;11158;53.404;-1.510;2023-08-08T04:35:55;3.17;;;1.30;;
21987;SDS011;11158;53.404;-1.510;2023-08-08T04:38:39;5.97;;;1.50;;
21987;SDS011;11158;53.404;-1.510;2023-08-08T04:41:23;2.33;;;1.70;;
21987;SDS011;11158;53.404;-1.510;2023-08-08T04:44:08;4.43;;;1.52;;
21987;SDS011;11158;53.404;-1.510;2023-08-08T04:46:52;4.53;;;2.15;;
21987;SDS011;11158;53.404;-1.510;2023-08-08T04:49:36;3.53;;;1.80;;
21987;SDS011;11158;53.404;-1.510;2023-08-08T04:52:20;6.70;;;2.30;;
21987;SDS011;11158;53.404;-1.510;2023-08-08T04:55:04;4.45;;;1.88;;
21987;SDS011;11158;53.404;-1.510;2023-08-08T04:57:49;3.83;;;1.88;;
21987;SDS011;11158;53.404;-1.510;2023-08-08T05:00:33;2.47;;;1.88;;
21987;SDS011;11158;53.404;-1.510;2023-08-08T05:03:17;2.60;;;1.75;;
21987;SDS011;11158;53.404;-1.510;2023-08-08T05:06:02;4.07;;;1.73;;
21987;SDS011;11158;53.404;-1.510;2023-08-08T05:08:46;4.43;;;1.55;;
21987;SDS011;11158;53.404;-1.510;2023-08-08T05:11:33;4.68;;;1.70;;
21987;SDS011;11158;53.404;-1.510;2023-08-08T05:14:18;5.60;;;1.58;;
21987;SDS011;11158;53.404;-1.510;2023-08-08T05:17:02;3.42;;;1.40;;
21987;SDS011;11158;53.404;-1.510;2023-08-08T05:19:46;3.83;;;1.52;;
21987;SDS011;11158;53.404;-1.510;2023-08-08T05:22:31;3.20;;;1.52;;
21987;SDS011;11158;53.404;-1.510;2023-08-08T05:25:15;2.08;;;1.58;;
21987;SDS011;11158;53.404;-1.510;2023-08-08T05:27:59;4.80;;;1.83;;
21987;SDS011;11158;53.404;-1.510;2023-08-08T05:30:44;4.00;;;1.95;;
21987;SDS011;11158;53.404;-1.510;2023-08-08T05:33:28;3.05;;;1.90;;
21987;SDS011;11158;53.404;-1.510;2023-08-08T05:36:13;2.78;;;1.50;;
21987;SDS011;11158;53.404;-1.510;2023-08-08T05:38:57;4.70;;;1.83;;
21987;SDS011;11158;53.404;-1.510;2023-08-08T05:41:41;3.78;;;2.20;;
21987;SDS011;11158;53.404;-1.510;2023-08-08T05:44:25;2.33;;;1.88;;
21987;SDS011;11158;53.404;-1.510;2023-08-08T05:47:09;4.00;;;2.58;;
21987;SDS011;11158;53.404;-1.510;2023-08-08T05:49:54;2.85;;;2.08;;
21987;SDS011;11158;53.404;-1.510;2023-08-08T05:52:38;3.53;;;2.10;;
21987;SDS011;11158;53.404;-1.510;2023-08-08T05:55:22;3.78;;;1.80;;
21987;SDS011;11158;53.404;-1.510;2023-08-08T05:58:06;2.83;;;1.85;;
21987;SDS011;11158;53.404;-1.510;2023-08-08T06:00:51;3.92;;;1.85;;
21987;SDS011;11158;53.404;-1.510;2023-08-08T06:03:35;5.50;;;2.17;;
21987;SDS011;11158;53.404;-1.510;2023-08-08T06:06:21;5.20;;;1.90;;
21987;SDS011;11158;53.404;-1.510;2023-08-08T06:09:05;4.50;;;1.70;;
21987;SDS011;11158;53.404;-1.510;2023-08-08T06:11:49;3.45;;;1.70;;
21987;SDS011;11158;53.404;-1.510;2023-08-08T06:14:33;3.85;;;1.55;;
21987;SDS011;11158;53.404;-1.510;2023-08-08T06:17:17;2.72;;;1.52;;
21987;SDS011;11158;53.404;-1.510;2023-08-08T06:20:01;3.08;;;1.48;;
21987;SDS011;11158;53.404;-1.510;2023-08-08T06:22:46;5.15;;;1.42;;
21987;SDS011;11158;53.404;-1.510;2023-08-08T06:25:30;2.03;;;1.20;;
21987;SDS011;11158;53.404;-1.510;2023-08-08T06:28:14;4.18;;;1.40;;
21987;SDS011;11158;53.404;-1.510;2023-08-08T06:30:58;3.85;;;1.40;;
21987;SDS011;11158;53.404;-1.510;2023-08-08T06:33:42;2.45;;;1.25;;
21987;SDS011;11158;53.404;-1.510;2023-08-08T06:36:27;5.78;;;1.40;;
21987;SDS011;11158;53.404;-1.510;2023-08-08T06:39:11;3.17;;;1.27;;
21987;SDS011;11158;53.404;-1.510;2023-08-08T06:41:55;3.42;;;0.95;;
21987;SDS011;11158;53.404;-1.510;2023-08-08T06:44:42;3.70;;;1.30;;
21987;SDS011;11158;53.404;-1.510;2023-08-08T06:47:27;2.13;;;1.20;;
21987;SDS011;11158;53.404;-1.510;2023-08-08T06:50:11;1.80;;;1.00;;
21987;SDS011;11158;53.404;-1.510;2023-08-08T06:52:56;1.65;;;0.90;;
21987;SDS011;11158;53.404;-1.510;2023-08-08T06:55:40;1.65;;;1.00;;
21987;SDS011;11158;53.404;-1.510;2023-08-08T06:58:25;3.55;;;1.35;;
21987;SDS011;11158;53.404;-1.510;2023-08-08T07:01:09;2.67;;;1.10;;
21987;SDS011;11158;53.404;-1.510;2023-08-08T07:03:54;3.35;;;1.27;;
21987;SDS011;11158;53.404;-1.510;2023-08-08T07:06:38;2.80;;;1.27;;
21987;SDS011;11158;53.404;-1.510;2023-08-08T07:09:22;3.75;;;1.08;;
21987;SDS011;11158;53.404;-1.510;2023-08-08T07:12:06;1.08;;;0.93;;
21987;SDS011;11158;53.404;-1.510;2023-08-08T07:14:51;1.33;;;1.08;;
21987;SDS011;11158;53.404;-1.510;2023-08-08T07:17:35;2.38;;;0.95;;
21987;SDS011;11158;53.404;-1.510;2023-08-08T07:20:19;5.25;;;1.23;;
21987;SDS011;11158;53.404;-1.510;2023-08-08T07:23:04;2.58;;;1.17;;
21987;SDS011;11158;53.404;-1.510;2023-08-08T07:25:48;1.33;;;0.95;;
21987;SDS011;11158;53.404;-1.510;2023-08-08T07:28:33;1.38;;;0.70;;
21987;SDS011;11158;53.404;-1.510;2023-08-08T07:31:17;2.42;;;1.10;;
21987;SDS011;11158;53.404;-1.510;2023-08-08T07:34:01;1.67;;;0.73;;
21987;SDS011;11158;53.404;-1.510;2023-08-08T07:36:45;4.57;;;1.25;;
21987;SDS011;11158;53.404;-1.510;2023-08-08T07:39:30;3.47;;;1.08;;
21987;SDS011;11158;53.404;-1.510;2023-08-08T07:42:14;2.67;;;1.00;;
21987;SDS011;11158;53.404;-1.510;2023-08-08T07:44:58;2.78;;;0.90;;
21987;SDS011;11158;53.404;-1.510;2023-08-08T07:47:42;1.77;;;1.10;;
21987;SDS011;11158;53.404;-1.510;2023-08-08T07:50:26;2.78;;;1.48;;
21987;SDS011;11158;53.404;-1.510;2023-08-08T07:53:11;1.90;;;1.30;;
21987;SDS011;11158;53.404;-1.510;2023-08-08T07:55:55;2.42;;;1.42;;
21987;SDS011;11158;53.404;-1.510;2023-08-08T07:58:39;1.65;;;1.20;;
21987;SDS011;11158;53.404;-1.510;2023-08-08T08:01:23;2.95;;;1.48;;
21987;SDS011;11158;53.404;-1.510;2023-08-08T08:04:07;1.60;;;1.25;;
21987;SDS011;11158;53.404;-1.510;2023-08-08T08:06:52;2.35;;;1.45;;
21987;SDS011;11158;53.404;-1.510;2023-08-08T08:09:35;2.40;;;1.50;;
21987;SDS011;11158;53.404;-1.510;2023-08-08T08:12:20;1.40;;;1.27;;
21987;SDS011;11158;53.404;-1.510;2023-08-08T08:15:04;1.20;;;1.10;;
21987;SDS011;11158;53.404;-1.510;2023-08-08T08:17:49;2.42;;;1.17;;
21987;SDS011;11158;53.404;-1.510;2023-08-08T08:20:33;1.63;;;1.13;;
21987;SDS011;11158;53.404;-1.510;2023-08-08T08:23:17;2.58;;;1.35;;
21987;SDS011;11158;53.404;-1.510;2023-08-08T08:26:02;4.00;;;1.48;;
21987;SDS011;11158;53.404;-1.510;2023-08-08T08:28:46;1.77;;;1.00;;
21987;SDS011;11158;53.404;-1.510;2023-08-08T08:31:30;7.57;;;2.22;;
21987;SDS011;11158;53.404;-1.510;2023-08-08T08:34:14;5.80;;;1.73;;
21987;SDS011;11158;53.404;-1.510;2023-08-08T08:36:58;4.07;;;1.10;;
21987;SDS011;11158;53.404;-1.510;2023-08-08T08:39:42;3.50;;;1.58;;
21987;SDS011;11158;53.404;-1.510;2023-08-08T08:42:27;1.83;;;1.20;;
21987;SDS011;11158;53.404;-1.510;2023-08-08T08:45:12;1.90;;;0.90;;
21987;SDS011;11158;53.404;-1.510;2023-08-08T08:47:58;1.60;;;0.95;;
21987;SDS011;11158;53.404;-1.510;2023-08-08T08:50:43;10.23;;;1.45;;
21987;SDS011;11158;53.404;-1.510;2023-08-08T08:53:30;1.40;;;0.93;;
21987;SDS011;11158;53.404;-1.510;2023-08-08T08:56:15;1.50;;;0.90;;
21987;SDS011;11158;53.404;-1.510;2023-08-08T08:59:00;2.05;;;1.00;;
21987;SDS011;11158;53.404;-1.510;2023-08-08T09:01:45;2.47;;;0.63;;
21987;SDS011;11158;53.404;-1.510;2023-08-08T09:04:29;0.90;;;0.80;;
21987;SDS011;11158;53.404;-1.510;2023-08-08T09:07:14;1.08;;;0.70;;
21987;SDS011;11158;53.404;-1.510;2023-08-08T09:10:02;4.07;;;0.70;;
21987;SDS011;11158;53.404;-1.510;2023-08-08T09:12:47;1.05;;;0.63;;
21987;SDS011;11158;53.404;-1.510;2023-08-08T09:15:33;1.48;;;0.88;;
21987;SDS011;11158;53.404;-1.510;2023-08-08T09:18:18;2.45;;;0.80;;
21987;SDS011;11158;53.404;-1.510;2023-08-08T09:21:02;2.05;;;1.02;;
21987;SDS011;11158;53.404;-1.510;2023-08-08T09:23:46;1.08;;;0.88;;
21987;SDS011;11158;53.404;-1.510;2023-08-08T09:26:30;0.70;;;0.70;;
21987;SDS011;11158;53.404;-1.510;2023-08-08T09:29:14;3.15;;;0.90;;
21987;SDS011;11158;53.404;-1.510;2023-08-08T09:31:59;2.92;;;0.90;;
21987;SDS011;11158;53.404;-1.510;2023-08-08T09:34:47;2.47;;;0.70;;
21987;SDS011;11158;53.404;-1.510;2023-08-08T09:37:31;1.10;;;0.73;;
21987;SDS011;11158;53.404;-1.510;2023-08-08T09:40:15;3.28;;;0.77;;
21987;SDS011;11158;53.404;-1.510;2023-08-08T09:42:59;1.40;;;0.88;;
21987;SDS011;11158;53.404;-1.510;2023-08-08T09:45:43;0.82;;;0.70;;
21987;SDS011;11158;53.404;-1.510;2023-08-08T09:48:32;2.05;;;0.80;;
21987;SDS011;11158;53.404;-1.510;2023-08-08T09:51:16;3.05;;;1.02;;
21987;SDS011;11158;53.404;-1.510;2023-08-08T09:54:01;0.77;;;0.70;;
21987;SDS011;11158;53.404;-1.510;2023-08-08T09:56:48;0.80;;;0.80;;
21987;SDS011;11158;53.404;-1.510;2023-08-08T09:59:33;2.13;;;0.90;;
21987;SDS011;11158;53.404;-1.510;2023-08-08T10:02:18;3.55;;;0.70;;
21987;SDS011;11158;53.404;-1.510;2023-08-08T10:05:04;1.50;;;0.70;;
21987;SDS011;11158;53.404;-1.510;2023-08-08T10:07:48;3.63;;;0.90;;
21987;SDS011;11158;53.404;-1.510;2023-08-08T10:10:32;1.08;;;0.60;;
21987;SDS011;11158;53.404;-1.510;2023-08-08T10:16:08;2.88;;;0.82;;
21987;SDS011;11158;53.404;-1.510;2023-08-08T10:18:56;1.98;;;0.82;;
21987;SDS011;11158;53.404;-1.510;2023-08-08T10:21:43;3.13;;;1.00;;
21987;SDS011;11158;53.404;-1.510;2023-08-08T10:24:32;2.85;;;1.05;;
21987;SDS011;11158;53.404;-1.510;2023-08-08T10:27:35;2.60;;;0.93;;
21987;SDS011;11158;53.404;-1.510;2023-08-08T10:30:21;2.30;;;1.05;;
21987;SDS011;11158;53.404;-1.510;2023-08-08T10:33:05;4.18;;;1.13;;
21987;SDS011;11158;53.404;-1.510;2023-08-08T10:38:41;1.35;;;0.57;;
21987;SDS011;11158;53.404;-1.510;2023-08-08T10:41:26;1.23;;;0.50;;
21987;SDS011;11158;53.404;-1.510;2023-08-08T10:44:12;2.92;;;0.80;;
21987;SDS011;11158;53.404;-1.510;2023-08-08T10:46:56;1.58;;;0.80;;
21987;SDS011;11158;53.404;-1.510;2023-08-08T10:49:41;3.10;;;0.98;;
21987;SDS011;11158;53.404;-1.510;2023-08-08T10:52:26;0.75;;;0.40;;
21987;SDS011;11158;53.404;-1.510;2023-08-08T10:55:17;3.10;;;0.77;;
21987;SDS011;11158;53.404;-1.510;2023-08-08T10:58:06;0.50;;;0.50;;
21987;SDS011;11158;53.404;-1.510;2023-08-08T11:00:53;1.10;;;0.52;;
21987;SDS011;11158;53.404;-1.510;2023-08-08T11:03:39;1.55;;;0.52;;
21987;SDS011;11158;53.404;-1.510;2023-08-08T11:06:24;1.20;;;0.60;;
21987;SDS011;11158;53.404;-1.510;2023-08-08T11:09:09;2.00;;;0.60;;
21987;SDS011;11158;53.404;-1.510;2023-08-08T11:11:53;2.05;;;0.93;;
21987;SDS011;11158;53.404;-1.510;2023-08-08T11:14:37;2.97;;;1.52;;
21987;SDS011;11158;53.404;-1.510;2023-08-08T11:17:21;1.63;;;1.33;;
21987;SDS011;11158;53.404;-1.510;2023-08-08T11:20:06;1.17;;;0.90;;
21987;SDS011;11158;53.404;-1.510;2023-08-08T11:22:57;1.40;;;0.70;;
21987;SDS011;11158;53.404;-1.510;2023-08-08T11:25:42;3.53;;;0.70;;
21987;SDS011;11158;53.404;-1.510;2023-08-08T11:28:27;1.02;;;0.80;;
21987;SDS011;11158;53.404;-1.510;2023-08-08T11:31:12;4.20;;;0.70;;
21987;SDS011;11158;53.404;-1.510;2023-08-08T11:33:57;2.47;;;0.80;;
21987;SDS011;11158;53.404;-1.510;2023-08-08T11:36:43;1.52;;;0.75;;
21987;SDS011;11158;53.404;-1.510;2023-08-08T11:39:33;0.68;;;0.63;;
21987;SDS011;11158;53.404;-1.510;2023-08-08T11:42:17;3.40;;;0.68;;
21987;SDS011;11158;53.404;-1.510;2023-08-08T11:45:02;0.57;;;0.57;;
21987;SDS011;11158;53.404;-1.510;2023-08-08T11:47:48;1.42;;;0.80;;
21987;SDS011;11158;53.404;-1.510;2023-08-08T11:50:36;2.50;;;0.90;;
21987;SDS011;11158;53.404;-1.510;2023-08-08T11:53:21;3.25;;;0.82;;
21987;SDS011;11158;53.404;-1.510;2023-08-08T11:56:07;1.52;;;0.80;;
21987;SDS011;11158;53.404;-1.510;2023-08-08T11:58:51;2.10;;;0.80;;
21987;SDS011;11158;53.404;-1.510;2023-08-08T12:01:35;1.35;;;0.90;;
21987;SDS011;11158;53.404;-1.510;2023-08-08T12:04:20;3.13;;;0.90;;
21987;SDS011;11158;53.404;-1.510;2023-08-08T12:07:04;3.63;;;0.90;;
21987;SDS011;11158;53.404;-1.510;2023-08-08T12:09:49;2.30;;;0.80;;
21987;SDS011;11158;53.404;-1.510;2023-08-08T12:12:33;2.58;;;0.90;;
21987;SDS011;11158;53.404;-1.510;2023-08-08T12:15:20;2.45;;;1.20;;
21987;SDS011;11158;53.404;-1.510;2023-08-08T12:18:05;1.98;;;0.85;;
21987;SDS011;11158;53.404;-1.510;2023-08-08T12:20:49;1.58;;;0.80;;
21987;SDS011;11158;53.404;-1.510;2023-08-08T12:23:34;0.88;;;0.75;;
21987;SDS011;11158;53.404;-1.510;2023-08-08T12:26:19;2.05;;;0.85;;
21987;SDS011;11158;53.404;-1.510;2023-08-08T12:29:03;2.35;;;1.02;;
21987;SDS011;11158;53.404;-1.510;2023-08-08T12:31:48;2.47;;;1.10;;
21987;SDS011;11158;53.404;-1.510;2023-08-08T12:34:32;1.42;;;0.90;;
21987;SDS011;11158;53.404;-1.510;2023-08-08T12:37:16;4.20;;;1.42;;
21987;SDS011;11158;53.404;-1.510;2023-08-08T12:40:01;6.95;;;4.07;;
21987;SDS011;11158;53.404;-1.510;2023-08-08T12:42:46;0.85;;;0.80;;
21987;SDS011;11158;53.404;-1.510;2023-08-08T12:45:31;0.73;;;0.55;;
21987;SDS011;11158;53.404;-1.510;2023-08-08T12:48:15;3.15;;;1.20;;
21987;SDS011;11158;53.404;-1.510;2023-08-08T12:50:59;3.75;;;1.73;;
21987;SDS011;11158;53.404;-1.510;2023-08-08T12:53:44;3.35;;;1.55;;
21987;SDS011;11158;53.404;-1.510;2023-08-08T12:56:28;2.72;;;2.28;;
21987;SDS011;11158;53.404;-1.510;2023-08-08T12:59:12;3.53;;;2.47;;
21987;SDS011;11158;53.404;-1.510;2023-08-08T13:01:57;4.53;;;2.88;;
21987;SDS011;11158;53.404;-1.510;2023-08-08T13:04:41;6.32;;;3.90;;
21987;SDS011;11158;53.404;-1.510;2023-08-08T13:07:26;2.30;;;1.30;;
21987;SDS011;11158;53.404;-1.510;2023-08-08T13:10:11;2.60;;;0.65;;
21987;SDS011;11158;53.404;-1.510;2023-08-08T13:12:58;3.65;;;1.15;;
21987;SDS011;11158;53.404;-1.510;2023-08-08T13:15:42;2.45;;;0.90;;
21987;SDS011;11158;53.404;-1.510;2023-08-08T13:18:29;2.65;;;0.90;;
21987;SDS011;11158;53.404;-1.510;2023-08-08T13:21:14;1.33;;;1.10;;
21987;SDS011;11158;53.404;-1.510;2023-08-08T13:23:58;3.67;;;1.27;;
21987;SDS011;11158;53.404;-1.510;2023-08-08T13:26:42;3.63;;;1.00;;
21987;SDS011;11158;53.404;-1.510;2023-08-08T13:29:26;3.35;;;0.82;;
21987;SDS011;11158;53.404;-1.510;2023-08-08T13:32:10;3.13;;;1.00;;
21987;SDS011;11158;53.404;-1.510;2023-08-08T13:34:54;2.65;;;0.82;;
21987;SDS011;11158;53.404;-1.510;2023-08-08T13:37:38;1.30;;;0.77;;
21987;SDS011;11158;53.404;-1.510;2023-08-08T13:40:22;0.93;;;0.60;;
21987;SDS011;11158;53.404;-1.510;2023-08-08T13:43:06;1.20;;;0.60;;
21987;SDS011;11158;53.404;-1.510;2023-08-08T13:45:50;1.80;;;0.50;;
21987;SDS011;11158;53.404;-1.510;2023-08-08T13:48:34;0.65;;;0.40;;
21987;SDS011;11158;53.404;-1.510;2023-08-08T13:51:18;0.38;;;0.38;;
21987;SDS011;11158;53.404;-1.510;2023-08-08T13:54:02;0.50;;;0.30;;
21987;SDS011;11158;53.404;-1.510;2023-08-08T13:56:46;0.88;;;0.50;;
21987;SDS011;11158;53.404;-1.510;2023-08-08T13:59:31;0.32;;;0.30;;
21987;SDS011;11158;53.404;-1.510;2023-08-08T14:02:16;0.50;;;0.50;;
21987;SDS011;11158;53.404;-1.510;2023-08-08T14:05:03;0.50;;;0.40;;
21987;SDS011;11158;53.404;-1.510;2023-08-08T14:07:50;0.40;;;0.40;;
21987;SDS011;11158;53.404;-1.510;2023-08-08T14:10:34;0.93;;;0.55;;
21987;SDS011;11158;53.404;-1.510;2023-08-08T14:13:18;0.68;;;0.40;;
21987;SDS011;11158;53.404;-1.510;2023-08-08T14:16:03;1.85;;;0.50;;
21987;SDS011;11158;53.404;-1.510;2023-08-08T14:18:47;0.73;;;0.45;;
21987;SDS011;11158;53.404;-1.510;2023-08-08T14:21:31;1.10;;;0.55;;
21987;SDS011;11158;53.404;-1.510;2023-08-08T14:24:15;2.72;;;0.60;;
21987;SDS011;11158;53.404;-1.510;2023-08-08T14:26:59;0.52;;;0.30;;
21987;SDS011;11158;53.404;-1.510;2023-08-08T14:29:44;2.30;;;0.40;;
21987;SDS011;11158;53.404;-1.510;2023-08-08T14:32:28;1.88;;;0.47;;
21987;SDS011;11158;53.404;-1.510;2023-08-08T14:35:12;2.33;;;0.55;;
21987;SDS011;11158;53.404;-1.510;2023-08-08T14:37:56;2.38;;;0.40;;
21987;SDS011;11158;53.404;-1.510;2023-08-08T14:40:40;0.30;;;0.30;;
21987;SDS011;11158;53.404;-1.510;2023-08-08T14:43:24;0.65;;;0.43;;
21987;SDS011;11158;53.404;-1.510;2023-08-08T14:46:08;0.30;;;0.30;;
21987;SDS011;11158;53.404;-1.510;2023-08-08T14:48:52;0.70;;;0.50;;
21987;SDS011;11158;53.404;-1.510;2023-08-08T14:51:36;0.68;;;0.50;;
21987;SDS011;11158;53.404;-1.510;2023-08-08T14:54:21;0.95;;;0.45;;
21987;SDS011;11158;53.404;-1.510;2023-08-08T14:57:06;0.45;;;0.40;;
21987;SDS011;11158;53.404;-1.510;2023-08-08T14:59:49;1.33;;;0.65;;
21987;SDS011;11158;53.404;-1.510;2023-08-08T15:02:33;0.77;;;0.40;;
21987;SDS011;11158;53.404;-1.510;2023-08-08T15:05:18;1.77;;;0.38;;
21987;SDS011;11158;53.404;-1.510;2023-08-08T15:08:02;0.52;;;0.40;;
21987;SDS011;11158;53.404;-1.510;2023-08-08T15:10:47;0.85;;;0.20;;
21987;SDS011;11158;53.404;-1.510;2023-08-08T15:13:31;0.98;;;0.30;;
21987;SDS011;11158;53.404;-1.510;2023-08-08T15:16:15;0.50;;;0.47;;
21987;SDS011;11158;53.404;-1.510;2023-08-08T15:19:01;1.42;;;0.30;;
21987;SDS011;11158;53.404;-1.510;2023-08-08T15:21:45;1.33;;;0.40;;
21987;SDS011;11158;53.404;-1.510;2023-08-08T15:24:29;0.52;;;0.35;;
21987;SDS011;11158;53.404;-1.510;2023-08-08T15:27:14;0.45;;;0.40;;
21987;SDS011;11158;53.404;-1.510;2023-08-08T15:29:58;0.47;;;0.25;;
21987;SDS011;11158;53.404;-1.510;2023-08-08T15:32:43;1.10;;;0.55;;
21987;SDS011;11158;53.404;-1.510;2023-08-08T15:35:27;0.30;;;0.30;;
21987;SDS011;11158;53.404;-1.510;2023-08-08T15:38:11;0.28;;;0.22;;
21987;SDS011;11158;53.404;-1.510;2023-08-08T15:40:55;0.88;;;0.60;;
21987;SDS011;11158;53.404;-1.510;2023-08-08T15:43:39;0.65;;;0.40;;
21987;SDS011;11158;53.404;-1.510;2023-08-08T15:46:23;0.95;;;0.47;;
21987;SDS011;11158;53.404;-1.510;2023-08-08T15:49:07;0.30;;;0.30;;
21987;SDS011;11158;53.404;-1.510;2023-08-08T15:51:51;3.10;;;0.30;;
21987;SDS011;11158;53.404;-1.510;2023-08-08T15:54:40;1.27;;;0.73;;
21987;SDS011;11158;53.404;-1.510;2023-08-08T15:57:24;0.30;;;0.30;;
21987;SDS011;11158;53.404;-1.510;2023-08-08T16:00:08;1.42;;;0.52;;
21987;SDS011;11158;53.404;-1.510;2023-08-08T16:02:54;0.47;;;0.38;;
21987;SDS011;11158;53.404;-1.510;2023-08-08T16:05:39;2.67;;;0.50;;
21987;SDS011;11158;53.404;-1.510;2023-08-08T16:08:23;2.03;;;0.30;;
21987;SDS011;11158;53.404;-1.510;2023-08-08T16:11:07;1.00;;;0.38;;
21987;SDS011;11158;53.404;-1.510;2023-08-08T16:13:51;1.90;;;0.40;;
21987;SDS011;11158;53.404;-1.510;2023-08-08T16:16:35;1.00;;;0.40;;
21987;SDS011;11158;53.404;-1.510;2023-08-08T16:19:19;0.75;;;0.40;;
21987;SDS011;11158;53.404;-1.510;2023-08-08T16:22:04;1.33;;;0.40;;
21987;SDS011;11158;53.404;-1.510;2023-08-08T16:24:49;0.68;;;0.40;;
21987;SDS011;11158;53.404;-1.510;2023-08-08T16:27:36;1.00;;;0.52;;